This is the latest recevied weather packets stored in our database for station/object NQ9F. If no packets are shown the sender has not sent any weather packets the latest 10 day(s).
| Time | Temp. | Humidity | Pressure | Rain* | Wind** | Luminosity | Snow |
|---|---|---|---|---|---|---|---|
| 1777692918 | 15.56° C | 76% | 1019.4 hPa | 0 mm | - | 0 W/m² | - |
| 1777692615 | 15.56° C | 76% | 1019.5 hPa | 0 mm | - | 0 W/m² | - |
| 1777692311 | 15.56° C | 75% | 1019.1 hPa | 0 mm | - | 0 W/m² | - |
| 1777692008 | 15.56° C | 75% | 1019.1 hPa | 0 mm | - | 0 W/m² | - |
| 1777691706 | 15.56° C | 72% | 1019.1 hPa | 0 mm | - | 0 W/m² | - |
| 1777691404 | 15.56° C | 72% | 1019.3 hPa | 0 mm | - | 0 W/m² | - |
| 1777691102 | 15.56° C | 72% | 1018.9 hPa | 0 mm | - | 0 W/m² | - |
| 1777690800 | 15.56° C | 77% | 1019.3 hPa | 0 mm | - | 0 W/m² | - |
| 1777690497 | 15.56° C | 78% | 1018.9 hPa | 0 mm | - | 0 W/m² | - |
| 1777690194 | 15.56° C | 76% | 1019 hPa | 0 mm | - | 0 W/m² | - |
| 1777689892 | 15.56° C | 77% | 1018.9 hPa | 0 mm | - | 0 W/m² | - |
| 1777689590 | 15.56° C | 79% | 1018.7 hPa | 0 mm | - | 0 W/m² | - |
| 1777689287 | 15.56° C | 79% | 1018.6 hPa | 0 mm | - | 0 W/m² | - |
| 1777688985 | 15.56° C | 80% | 1018.8 hPa | 0 mm | - | 0 W/m² | - |
| 1777688681 | 15.56° C | 80% | 1018.5 hPa | 0 mm | - | 0 W/m² | - |
| 1777688378 | 15.56° C | 80% | 1018.5 hPa | 0 mm | - | 0 W/m² | - |
| 1777688076 | 15.56° C | 80% | 1018.4 hPa | 0 mm | - | 0 W/m² | - |
| 1777687773 | 15.56° C | 81% | 1018.4 hPa | 0 mm | - | 0 W/m² | - |
| 1777673834 | 16.67° C | 64% | 1016 hPa | 0 mm | - | 182 W/m² | - |
| 1777673531 | 16.67° C | 64% | 1016 hPa | 0 mm | - | 212 W/m² | - |
| 1777673229 | 16.67° C | 67% | 1015.9 hPa | 0 mm | - | 229 W/m² | - |
| 1777672926 | 16.67° C | 64% | 1015.9 hPa | 0 mm | - | 240 W/m² | - |
| 1777672623 | 16.67° C | 65% | 1015.9 hPa | 0 mm | - | 230 W/m² | - |
| 1777672318 | 16.67° C | 67% | 1015.9 hPa | 0 mm | - | 219 W/m² | - |
| 1777672013 | 16.67° C | 66% | 1015.8 hPa | 0 mm | - | 219 W/m² | - |
* Rain latest hour (hover to see other rain measurements)
** Current wind speed in m/s (hover to see current wind gust speed)